<?xml version="1.0" encoding="UTF-8" standalone="no" ?>
<gpx xmlns="http://www.topografix.com/GPX/1/1" xmlns:xsi="http://www.w3.org/2001/XMLSchema-instance" xsi:schemaLocation="http://www.topografix.com/GPX/1/1 http://www.topografix.com/GPX/1/1/gpx.xsd" version="1.1" creator="VisuGPX - https://www.visugpx.com">
  <metadata>
    <name>Rocher de Carabasse</name>
    <desc><![CDATA[Randonnée sur les hauteur de Beaulieu sur la Montagne des Serres jusqu'au Rocher de Carabasse un lieu idéal pour méditer devant un magnifique panorama. ]]></desc>
  </metadata>
  <trk>
    <name><![CDATA[Carabasse_2017-10-20 09:07]]></name>
    <desc><![CDATA[<p>Heure de départ: 10/20/2017 09:07<br/>Heure d'arrivée: 10/20/2017 13:53<br/>Distance: 10,5 km (04:46)<br/>Temps déplacement: 02:43<br/>Vitesse moyenne: 2,2 km/h<br/>Vitesse moyenne mouv.: 3,87 km/h<br/>Vitesse Max.: 8,28 km/h<br/>Altitude minimale: 128 m<br/>Altitude maximale: 429 m<br/>Vitesse de montée: 224,8 m/h<br/>Vitesse de descente: -154,3 m/h<br/>Gain d'altitude: 429 m<br/>Perte d'altitude: -425 m<br/>Temps de montée: 01:54<br/>Temps de descente: 02:45<br/></p><hr align="center" width="480" style="height: 2px; width: 517px"/>]]></desc>
    <trkseg>
      <trkpt lat="44.3613" lon="4.23357">
        <ele>146.69</ele>
        <time>2017-10-20T07:07:05Z</time>
      </trkpt>
      <trkpt lat="44.36117" lon="4.23375">
        <ele>144.33</ele>
        <time>2017-10-20T07:07:58Z</time>
      </trkpt>
      <trkpt lat="44.36103" lon="4.23393">
        <ele>148.12</ele>
        <time>2017-10-20T07:08:26Z</time>
      </trkpt>
      <trkpt lat="44.36085" lon="4.23389">
        <ele>147.99</ele>
        <time>2017-10-20T07:09:32Z</time>
      </trkpt>
      <trkpt lat="44.36068" lon="4.23381">
        <ele>147.68</ele>
        <time>2017-10-20T07:10:04Z</time>
      </trkpt>
      <trkpt lat="44.3605" lon="4.23376">
        <ele>151.89</ele>
        <time>2017-10-20T07:10:20Z</time>
      </trkpt>
      <trkpt lat="44.36032" lon="4.23377">
        <ele>154.66</ele>
        <time>2017-10-20T07:10:57Z</time>
      </trkpt>
      <trkpt lat="44.36013" lon="4.23378">
        <ele>155.96</ele>
        <time>2017-10-20T07:11:19Z</time>
      </trkpt>
      <trkpt lat="44.35995" lon="4.23385">
        <ele>147.73</ele>
        <time>2017-10-20T07:11:38Z</time>
      </trkpt>
      <trkpt lat="44.35978" lon="4.23398">
        <ele>149.65</ele>
        <time>2017-10-20T07:12:04Z</time>
      </trkpt>
      <trkpt lat="44.35967" lon="4.23418">
        <ele>149.1</ele>
        <time>2017-10-20T07:12:34Z</time>
      </trkpt>
      <trkpt lat="44.35957" lon="4.2344">
        <ele>151.38</ele>
        <time>2017-10-20T07:12:48Z</time>
      </trkpt>
      <trkpt lat="44.35957" lon="4.23467">
        <ele>154.08</ele>
        <time>2017-10-20T07:13:03Z</time>
      </trkpt>
      <trkpt lat="44.35955" lon="4.23494">
        <ele>154.68</ele>
        <time>2017-10-20T07:13:22Z</time>
      </trkpt>
      <trkpt lat="44.35945" lon="4.23516">
        <ele>148.23</ele>
        <time>2017-10-20T07:13:39Z</time>
      </trkpt>
      <trkpt lat="44.35939" lon="4.2354">
        <ele>147.95</ele>
        <time>2017-10-20T07:13:50Z</time>
      </trkpt>
      <trkpt lat="44.3594" lon="4.23565">
        <ele>148.27</ele>
        <time>2017-10-20T07:14:03Z</time>
      </trkpt>
      <trkpt lat="44.3594" lon="4.23591">
        <ele>145.78</ele>
        <time>2017-10-20T07:14:24Z</time>
      </trkpt>
      <trkpt lat="44.35938" lon="4.23618">
        <ele>156.55</ele>
        <time>2017-10-20T07:14:36Z</time>
      </trkpt>
      <trkpt lat="44.35931" lon="4.23644">
        <ele>151.5</ele>
        <time>2017-10-20T07:14:54Z</time>
      </trkpt>
      <trkpt lat="44.35926" lon="4.2367">
        <ele>156.65</ele>
        <time>2017-10-20T07:15:15Z</time>
      </trkpt>
      <trkpt lat="44.35917" lon="4.23693">
        <ele>150.89</ele>
        <time>2017-10-20T07:15:33Z</time>
      </trkpt>
      <trkpt lat="44.35913" lon="4.23718">
        <ele>146.92</ele>
        <time>2017-10-20T07:15:55Z</time>
      </trkpt>
      <trkpt lat="44.35909" lon="4.23743">
        <ele>150.57</ele>
        <time>2017-10-20T07:16:10Z</time>
      </trkpt>
      <trkpt lat="44.35909" lon="4.2377">
        <ele>151.41</ele>
        <time>2017-10-20T07:16:21Z</time>
      </trkpt>
      <trkpt lat="44.35912" lon="4.23796">
        <ele>148.6</ele>
        <time>2017-10-20T07:16:41Z</time>
      </trkpt>
      <trkpt lat="44.3591" lon="4.23823">
        <ele>148.04</ele>
        <time>2017-10-20T07:16:58Z</time>
      </trkpt>
      <trkpt lat="44.35908" lon="4.23848">
        <ele>149.39</ele>
        <time>2017-10-20T07:17:10Z</time>
      </trkpt>
      <trkpt lat="44.35893" lon="4.23866">
        <ele>149.39</ele>
        <time>2017-10-20T07:17:51Z</time>
      </trkpt>
      <trkpt lat="44.35887" lon="4.2389">
        <ele>147.48</ele>
        <time>2017-10-20T07:18:56Z</time>
      </trkpt>
      <trkpt lat="44.35899" lon="4.23911">
        <ele>150.66</ele>
        <time>2017-10-20T07:19:12Z</time>
      </trkpt>
      <trkpt lat="44.35899" lon="4.23938">
        <ele>145.73</ele>
        <time>2017-10-20T07:19:34Z</time>
      </trkpt>
      <trkpt lat="44.35887" lon="4.23959">
        <ele>144.69</ele>
        <time>2017-10-20T07:19:51Z</time>
      </trkpt>
      <trkpt lat="44.35882" lon="4.23985">
        <ele>147.3</ele>
        <time>2017-10-20T07:20:09Z</time>
      </trkpt>
      <trkpt lat="44.35877" lon="4.24011">
        <ele>142.76</ele>
        <time>2017-10-20T07:20:24Z</time>
      </trkpt>
      <trkpt lat="44.35867" lon="4.24035">
        <ele>145.79</ele>
        <time>2017-10-20T07:20:37Z</time>
      </trkpt>
      <trkpt lat="44.35853" lon="4.24051">
        <ele>145.6</ele>
        <time>2017-10-20T07:20:54Z</time>
      </trkpt>
      <trkpt lat="44.3584" lon="4.24069">
        <ele>136.51</ele>
        <time>2017-10-20T07:21:52Z</time>
      </trkpt>
      <trkpt lat="44.35833" lon="4.24093">
        <ele>143.54</ele>
        <time>2017-10-20T07:22:06Z</time>
      </trkpt>
      <trkpt lat="44.35822" lon="4.24116">
        <ele>146.63</ele>
        <time>2017-10-20T07:22:19Z</time>
      </trkpt>
      <trkpt lat="44.35812" lon="4.24138">
        <ele>144.66</ele>
        <time>2017-10-20T07:22:37Z</time>
      </trkpt>
      <trkpt lat="44.35802" lon="4.24162">
        <ele>143.66</ele>
        <time>2017-10-20T07:22:56Z</time>
      </trkpt>
      <trkpt lat="44.35793" lon="4.24187">
        <ele>145.62</ele>
        <time>2017-10-20T07:23:16Z</time>
      </trkpt>
      <trkpt lat="44.35784" lon="4.2421">
        <ele>146.25</ele>
        <time>2017-10-20T07:23:35Z</time>
      </trkpt>
      <trkpt lat="44.35776" lon="4.24234">
        <ele>144.01</ele>
        <time>2017-10-20T07:23:48Z</time>
      </trkpt>
      <trkpt lat="44.35768" lon="4.24258">
        <ele>145.3</ele>
        <time>2017-10-20T07:24:07Z</time>
      </trkpt>
      <trkpt lat="44.3576" lon="4.24281">
        <ele>147.7</ele>
        <time>2017-10-20T07:24:25Z</time>
      </trkpt>
      <trkpt lat="44.35751" lon="4.24304">
        <ele>149.63</ele>
        <time>2017-10-20T07:24:42Z</time>
      </trkpt>
      <trkpt lat="44.3574" lon="4.24325">
        <ele>145.73</ele>
        <time>2017-10-20T07:24:55Z</time>
      </trkpt>
      <trkpt lat="44.35729" lon="4.24345">
        <ele>146.6</ele>
        <time>2017-10-20T07:25:10Z</time>
      </trkpt>
      <trkpt lat="44.35721" lon="4.2437">
        <ele>146.3</ele>
        <time>2017-10-20T07:25:53Z</time>
      </trkpt>
      <trkpt lat="44.35706" lon="4.24386">
        <ele>146.61</ele>
        <time>2017-10-20T07:26:18Z</time>
      </trkpt>
      <trkpt lat="44.35695" lon="4.24409">
        <ele>153.57</ele>
        <time>2017-10-20T07:26:51Z</time>
      </trkpt>
      <trkpt lat="44.3568" lon="4.24424">
        <ele>147.78</ele>
        <time>2017-10-20T07:27:14Z</time>
      </trkpt>
      <trkpt lat="44.35668" lon="4.24446">
        <ele>152.66</ele>
        <time>2017-10-20T07:27:40Z</time>
      </trkpt>
      <trkpt lat="44.35658" lon="4.24467">
        <ele>156.7</ele>
        <time>2017-10-20T07:28:06Z</time>
      </trkpt>
      <trkpt lat="44.35644" lon="4.24485">
        <ele>158.63</ele>
        <time>2017-10-20T07:28:25Z</time>
      </trkpt>
      <trkpt lat="44.35627" lon="4.24492">
        <ele>154.42</ele>
        <time>2017-10-20T07:28:45Z</time>
      </trkpt>
      <trkpt lat="44.35607" lon="4.24496">
        <ele>160.32</ele>
        <time>2017-10-20T07:29:00Z</time>
      </trkpt>
      <trkpt lat="44.35589" lon="4.24495">
        <ele>156.96</ele>
        <time>2017-10-20T07:29:19Z</time>
      </trkpt>
      <trkpt lat="44.35572" lon="4.24508">
        <ele>158.6</ele>
        <time>2017-10-20T07:29:36Z</time>
      </trkpt>
      <trkpt lat="44.35561" lon="4.24528">
        <ele>154.69</ele>
        <time>2017-10-20T07:29:56Z</time>
      </trkpt>
      <trkpt lat="44.35552" lon="4.24552">
        <ele>156.6</ele>
        <time>2017-10-20T07:30:13Z</time>
      </trkpt>
      <trkpt lat="44.35541" lon="4.24574">
        <ele>159.6</ele>
        <time>2017-10-20T07:30:34Z</time>
      </trkpt>
      <trkpt lat="44.35531" lon="4.24598">
        <ele>162.88</ele>
        <time>2017-10-20T07:30:52Z</time>
      </trkpt>
      <trkpt lat="44.35521" lon="4.2462">
        <ele>164.64</ele>
        <time>2017-10-20T07:31:11Z</time>
      </trkpt>
      <trkpt lat="44.35514" lon="4.24644">
        <ele>158.42</ele>
        <time>2017-10-20T07:31:25Z</time>
      </trkpt>
      <trkpt lat="44.35505" lon="4.24668">
        <ele>161.3</ele>
        <time>2017-10-20T07:31:43Z</time>
      </trkpt>
      <trkpt lat="44.35501" lon="4.24694">
        <ele>165.65</ele>
        <time>2017-10-20T07:32:03Z</time>
      </trkpt>
      <trkpt lat="44.35491" lon="4.24716">
        <ele>162.68</ele>
        <time>2017-10-20T07:32:20Z</time>
      </trkpt>
      <trkpt lat="44.35487" lon="4.24743">
        <ele>162.36</ele>
        <time>2017-10-20T07:32:34Z</time>
      </trkpt>
      <trkpt lat="44.35469" lon="4.24737">
        <ele>167.25</ele>
        <time>2017-10-20T07:33:50Z</time>
      </trkpt>
      <trkpt lat="44.35451" lon="4.24732">
        <ele>171.78</ele>
        <time>2017-10-20T07:34:11Z</time>
      </trkpt>
      <trkpt lat="44.35433" lon="4.24725">
        <ele>174.37</ele>
        <time>2017-10-20T07:34:29Z</time>
      </trkpt>
      <trkpt lat="44.35416" lon="4.24715">
        <ele>171.9</ele>
        <time>2017-10-20T07:34:44Z</time>
      </trkpt>
      <trkpt lat="44.35399" lon="4.24705">
        <ele>173.38</ele>
        <time>2017-10-20T07:35:08Z</time>
      </trkpt>
      <trkpt lat="44.35383" lon="4.24692">
        <ele>170.97</ele>
        <time>2017-10-20T07:35:28Z</time>
      </trkpt>
      <trkpt lat="44.35366" lon="4.24681">
        <ele>171.8</ele>
        <time>2017-10-20T07:35:53Z</time>
      </trkpt>
      <trkpt lat="44.35347" lon="4.24682">
        <ele>175.71</ele>
        <time>2017-10-20T07:36:16Z</time>
      </trkpt>
      <trkpt lat="44.3533" lon="4.24689">
        <ele>179.41</ele>
        <time>2017-10-20T07:36:34Z</time>
      </trkpt>
      <trkpt lat="44.35312" lon="4.24684">
        <ele>180.2</ele>
        <time>2017-10-20T07:36:56Z</time>
      </trkpt>
      <trkpt lat="44.35297" lon="4.24668">
        <ele>181.78</ele>
        <time>2017-10-20T07:37:22Z</time>
      </trkpt>
      <trkpt lat="44.35281" lon="4.24655">
        <ele>187.58</ele>
        <time>2017-10-20T07:37:41Z</time>
      </trkpt>
      <trkpt lat="44.35264" lon="4.24645">
        <ele>185.62</ele>
        <time>2017-10-20T07:38:15Z</time>
      </trkpt>
      <trkpt lat="44.35246" lon="4.24634">
        <ele>195.71</ele>
        <time>2017-10-20T07:38:36Z</time>
      </trkpt>
      <trkpt lat="44.35227" lon="4.24634">
        <ele>188.95</ele>
        <time>2017-10-20T07:42:03Z</time>
      </trkpt>
      <trkpt lat="44.3521" lon="4.24628">
        <ele>190.89</ele>
        <time>2017-10-20T07:42:17Z</time>
      </trkpt>
      <trkpt lat="44.35192" lon="4.24622">
        <ele>197.69</ele>
        <time>2017-10-20T07:42:31Z</time>
      </trkpt>
      <trkpt lat="44.35174" lon="4.24628">
        <ele>202.06</ele>
        <time>2017-10-20T07:42:51Z</time>
      </trkpt>
      <trkpt lat="44.35155" lon="4.24623">
        <ele>195.71</ele>
        <time>2017-10-20T07:43:06Z</time>
      </trkpt>
      <trkpt lat="44.35137" lon="4.24618">
        <ele>175.94</ele>
        <time>2017-10-20T07:43:22Z</time>
      </trkpt>
      <trkpt lat="44.35119" lon="4.24624">
        <ele>195.75</ele>
        <time>2017-10-20T07:43:43Z</time>
      </trkpt>
      <trkpt lat="44.351" lon="4.24629">
        <ele>201.08</ele>
        <time>2017-10-20T07:44:06Z</time>
      </trkpt>
      <trkpt lat="44.35082" lon="4.24621">
        <ele>207.38</ele>
        <time>2017-10-20T07:44:22Z</time>
      </trkpt>
      <trkpt lat="44.35066" lon="4.24632">
        <ele>206.77</ele>
        <time>2017-10-20T07:44:46Z</time>
      </trkpt>
      <trkpt lat="44.35048" lon="4.2463">
        <ele>186.43</ele>
        <time>2017-10-20T07:45:31Z</time>
      </trkpt>
      <trkpt lat="44.35032" lon="4.24618">
        <ele>212.67</ele>
        <time>2017-10-20T07:45:48Z</time>
      </trkpt>
      <trkpt lat="44.35014" lon="4.24611">
        <ele>220.51</ele>
        <time>2017-10-20T07:46:06Z</time>
      </trkpt>
      <trkpt lat="44.34997" lon="4.24618">
        <ele>228.61</ele>
        <time>2017-10-20T07:46:36Z</time>
      </trkpt>
      <trkpt lat="44.34979" lon="4.24613">
        <ele>235.74</ele>
        <time>2017-10-20T07:47:05Z</time>
      </trkpt>
      <trkpt lat="44.34962" lon="4.24621">
        <ele>231.28</ele>
        <time>2017-10-20T07:47:31Z</time>
      </trkpt>
      <trkpt lat="44.34943" lon="4.2462">
        <ele>233.66</ele>
        <time>2017-10-20T07:47:53Z</time>
      </trkpt>
      <trkpt lat="44.34925" lon="4.24624">
        <ele>233.99</ele>
        <time>2017-10-20T07:48:11Z</time>
      </trkpt>
      <trkpt lat="44.34907" lon="4.24619">
        <ele>241.47</ele>
        <time>2017-10-20T07:48:45Z</time>
      </trkpt>
      <trkpt lat="44.3489" lon="4.24608">
        <ele>244.68</ele>
        <time>2017-10-20T07:49:01Z</time>
      </trkpt>
      <trkpt lat="44.34873" lon="4.24599">
        <ele>240.7</ele>
        <time>2017-10-20T07:49:15Z</time>
      </trkpt>
      <trkpt lat="44.34859" lon="4.24581">
        <ele>232.78</ele>
        <time>2017-10-20T07:49:40Z</time>
      </trkpt>
      <trkpt lat="44.34852" lon="4.24558">
        <ele>235.88</ele>
        <time>2017-10-20T07:49:57Z</time>
      </trkpt>
      <trkpt lat="44.34841" lon="4.24537">
        <ele>230.56</ele>
        <time>2017-10-20T07:50:14Z</time>
      </trkpt>
      <trkpt lat="44.34829" lon="4.24517">
        <ele>236.14</ele>
        <time>2017-10-20T07:50:28Z</time>
      </trkpt>
      <trkpt lat="44.34812" lon="4.24506">
        <ele>224.03</ele>
        <time>2017-10-20T07:50:49Z</time>
      </trkpt>
      <trkpt lat="44.34794" lon="4.24506">
        <ele>223.88</ele>
        <time>2017-10-20T07:51:16Z</time>
      </trkpt>
      <trkpt lat="44.34777" lon="4.24496">
        <ele>229.97</ele>
        <time>2017-10-20T07:51:35Z</time>
      </trkpt>
      <trkpt lat="44.3476" lon="4.24489">
        <ele>236.36</ele>
        <time>2017-10-20T07:51:54Z</time>
      </trkpt>
      <trkpt lat="44.34748" lon="4.2447">
        <ele>244.31</ele>
        <time>2017-10-20T07:52:19Z</time>
      </trkpt>
      <trkpt lat="44.3473" lon="4.2447">
        <ele>245.51</ele>
        <time>2017-10-20T07:52:39Z</time>
      </trkpt>
      <trkpt lat="44.34713" lon="4.24458">
        <ele>247.27</ele>
        <time>2017-10-20T07:52:50Z</time>
      </trkpt>
      <trkpt lat="44.34694" lon="4.24461">
        <ele>246.88</ele>
        <time>2017-10-20T07:53:30Z</time>
      </trkpt>
      <trkpt lat="44.34676" lon="4.24459">
        <ele>252.64</ele>
        <time>2017-10-20T07:53:45Z</time>
      </trkpt>
      <trkpt lat="44.34658" lon="4.24449">
        <ele>253.96</ele>
        <time>2017-10-20T07:54:00Z</time>
      </trkpt>
      <trkpt lat="44.34641" lon="4.24442">
        <ele>256.75</ele>
        <time>2017-10-20T07:54:29Z</time>
      </trkpt>
      <trkpt lat="44.34622" lon="4.2444">
        <ele>260.98</ele>
        <time>2017-10-20T07:55:02Z</time>
      </trkpt>
      <trkpt lat="44.34604" lon="4.24441">
        <ele>259.12</ele>
        <time>2017-10-20T07:55:22Z</time>
      </trkpt>
      <trkpt lat="44.34585" lon="4.24436">
        <ele>261.78</ele>
        <time>2017-10-20T07:55:36Z</time>
      </trkpt>
      <trkpt lat="44.34567" lon="4.24434">
        <ele>258.63</ele>
        <time>2017-10-20T07:55:57Z</time>
      </trkpt>
      <trkpt lat="44.34548" lon="4.24431">
        <ele>263.79</ele>
        <time>2017-10-20T07:56:41Z</time>
      </trkpt>
      <trkpt lat="44.3453" lon="4.24436">
        <ele>267.29</ele>
        <time>2017-10-20T07:59:50Z</time>
      </trkpt>
      <trkpt lat="44.34514" lon="4.24421">
        <ele>264.51</ele>
        <time>2017-10-20T08:01:58Z</time>
      </trkpt>
      <trkpt lat="44.34496" lon="4.24415">
        <ele>259.37</ele>
        <time>2017-10-20T08:02:15Z</time>
      </trkpt>
      <trkpt lat="44.34478" lon="4.24408">
        <ele>252.07</ele>
        <time>2017-10-20T08:02:43Z</time>
      </trkpt>
      <trkpt lat="44.34462" lon="4.24395">
        <ele>247.45</ele>
        <time>2017-10-20T08:03:56Z</time>
      </trkpt>
      <trkpt lat="44.34444" lon="4.24395">
        <ele>247.26</ele>
        <time>2017-10-20T08:04:09Z</time>
      </trkpt>
      <trkpt lat="44.34432" lon="4.24375">
        <ele>248.38</ele>
        <time>2017-10-20T08:04:49Z</time>
      </trkpt>
      <trkpt lat="44.34413" lon="4.24374">
        <ele>241.3</ele>
        <time>2017-10-20T08:05:42Z</time>
      </trkpt>
      <trkpt lat="44.34397" lon="4.24365">
        <ele>234.71</ele>
        <time>2017-10-20T08:06:07Z</time>
      </trkpt>
      <trkpt lat="44.34379" lon="4.24353">
        <ele>229.42</ele>
        <time>2017-10-20T08:06:35Z</time>
      </trkpt>
      <trkpt lat="44.34361" lon="4.24349">
        <ele>229.78</ele>
        <time>2017-10-20T08:06:55Z</time>
      </trkpt>
      <trkpt lat="44.34349" lon="4.24368">
        <ele>226.18</ele>
        <time>2017-10-20T08:07:29Z</time>
      </trkpt>
      <trkpt lat="44.34332" lon="4.24376">
        <ele>225.37</ele>
        <time>2017-10-20T08:07:54Z</time>
      </trkpt>
      <trkpt lat="44.34313" lon="4.24371">
        <ele>224.08</ele>
        <time>2017-10-20T08:10:02Z</time>
      </trkpt>
      <trkpt lat="44.34304" lon="4.24394">
        <ele>223.95</ele>
        <time>2017-10-20T08:10:32Z</time>
      </trkpt>
      <trkpt lat="44.34304" lon="4.24419">
        <ele>226.59</ele>
        <time>2017-10-20T08:10:57Z</time>
      </trkpt>
      <trkpt lat="44.34307" lon="4.24444">
        <ele>227.47</ele>
        <time>2017-10-20T08:11:25Z</time>
      </trkpt>
      <trkpt lat="44.34311" lon="4.24469">
        <ele>224.08</ele>
        <time>2017-10-20T08:11:41Z</time>
      </trkpt>
      <trkpt lat="44.34309" lon="4.24495">
        <ele>224.88</ele>
        <time>2017-10-20T08:12:05Z</time>
      </trkpt>
      <trkpt lat="44.34311" lon="4.2452">
        <ele>225.87</ele>
        <time>2017-10-20T08:12:27Z</time>
      </trkpt>
      <trkpt lat="44.3432" lon="4.24544">
        <ele>236.69</ele>
        <time>2017-10-20T08:13:05Z</time>
      </trkpt>
      <trkpt lat="44.3433" lon="4.24565">
        <ele>234.72</ele>
        <time>2017-10-20T08:14:05Z</time>
      </trkpt>
      <trkpt lat="44.34331" lon="4.24592">
        <ele>235.94</ele>
        <time>2017-10-20T08:14:58Z</time>
      </trkpt>
      <trkpt lat="44.34328" lon="4.24617">
        <ele>234.81</ele>
        <time>2017-10-20T08:15:20Z</time>
      </trkpt>
      <trkpt lat="44.34326" lon="4.24643">
        <ele>236.38</ele>
        <time>2017-10-20T08:15:39Z</time>
      </trkpt>
      <trkpt lat="44.34321" lon="4.24667">
        <ele>235.9</ele>
        <time>2017-10-20T08:16:22Z</time>
      </trkpt>
      <trkpt lat="44.34321" lon="4.24693">
        <ele>237.68</ele>
        <time>2017-10-20T08:16:41Z</time>
      </trkpt>
      <trkpt lat="44.34306" lon="4.2471">
        <ele>240.93</ele>
        <time>2017-10-20T08:17:20Z</time>
      </trkpt>
      <trkpt lat="44.34301" lon="4.24735">
        <ele>240.6</ele>
        <time>2017-10-20T08:17:40Z</time>
      </trkpt>
      <trkpt lat="44.34299" lon="4.24762">
        <ele>240.69</ele>
        <time>2017-10-20T08:18:16Z</time>
      </trkpt>
      <trkpt lat="44.34293" lon="4.24785">
        <ele>238.02</ele>
        <time>2017-10-20T08:18:45Z</time>
      </trkpt>
      <trkpt lat="44.34296" lon="4.24812">
        <ele>232.99</ele>
        <time>2017-10-20T08:19:04Z</time>
      </trkpt>
      <trkpt lat="44.34294" lon="4.24837">
        <ele>233.15</ele>
        <time>2017-10-20T08:19:21Z</time>
      </trkpt>
      <trkpt lat="44.34288" lon="4.24862">
        <ele>235.86</ele>
        <time>2017-10-20T08:19:41Z</time>
      </trkpt>
      <trkpt lat="44.34287" lon="4.24888">
        <ele>247.69</ele>
        <time>2017-10-20T08:20:09Z</time>
      </trkpt>
      <trkpt lat="44.34288" lon="4.24914">
        <ele>243.75</ele>
        <time>2017-10-20T08:20:26Z</time>
      </trkpt>
      <trkpt lat="44.34283" lon="4.24939">
        <ele>239.69</ele>
        <time>2017-10-20T08:20:56Z</time>
      </trkpt>
      <trkpt lat="44.34288" lon="4.24964">
        <ele>245.28</ele>
        <time>2017-10-20T08:21:19Z</time>
      </trkpt>
      <trkpt lat="44.34289" lon="4.24991">
        <ele>246.24</ele>
        <time>2017-10-20T08:21:37Z</time>
      </trkpt>
      <trkpt lat="44.34292" lon="4.25016">
        <ele>247.97</ele>
        <time>2017-10-20T08:21:54Z</time>
      </trkpt>
      <trkpt lat="44.34289" lon="4.25042">
        <ele>250.16</ele>
        <time>2017-10-20T08:22:15Z</time>
      </trkpt>
      <trkpt lat="44.34303" lon="4.2506">
        <ele>247.29</ele>
        <time>2017-10-20T08:22:46Z</time>
      </trkpt>
      <trkpt lat="44.34308" lon="4.25085">
        <ele>250.87</ele>
        <time>2017-10-20T08:23:15Z</time>
      </trkpt>
      <trkpt lat="44.34312" lon="4.25109">
        <ele>253.16</ele>
        <time>2017-10-20T08:24:04Z</time>
      </trkpt>
      <trkpt lat="44.34324" lon="4.2513">
        <ele>253.71</ele>
        <time>2017-10-20T08:24:21Z</time>
      </trkpt>
      <trkpt lat="44.3433" lon="4.25155">
        <ele>254.21</ele>
        <time>2017-10-20T08:24:38Z</time>
      </trkpt>
      <trkpt lat="44.34341" lon="4.25176">
        <ele>260.15</ele>
        <time>2017-10-20T08:25:05Z</time>
      </trkpt>
      <trkpt lat="44.34351" lon="4.25197">
        <ele>262.52</ele>
        <time>2017-10-20T08:25:32Z</time>
      </trkpt>
      <trkpt lat="44.34363" lon="4.25217">
        <ele>262.07</ele>
        <time>2017-10-20T08:25:56Z</time>
      </trkpt>
      <trkpt lat="44.34376" lon="4.25236">
        <ele>265.07</ele>
        <time>2017-10-20T08:26:22Z</time>
      </trkpt>
      <trkpt lat="44.34385" lon="4.25258">
        <ele>266.81</ele>
        <time>2017-10-20T08:26:44Z</time>
      </trkpt>
      <trkpt lat="44.34394" lon="4.25281">
        <ele>273.64</ele>
        <time>2017-10-20T08:27:05Z</time>
      </trkpt>
      <trkpt lat="44.34404" lon="4.25302">
        <ele>271.46</ele>
        <time>2017-10-20T08:27:35Z</time>
      </trkpt>
      <trkpt lat="44.34409" lon="4.25327">
        <ele>271.16</ele>
        <time>2017-10-20T08:27:52Z</time>
      </trkpt>
      <trkpt lat="44.34416" lon="4.25351">
        <ele>270.06</ele>
        <time>2017-10-20T08:28:21Z</time>
      </trkpt>
      <trkpt lat="44.34408" lon="4.25374">
        <ele>273.73</ele>
        <time>2017-10-20T08:29:11Z</time>
      </trkpt>
      <trkpt lat="44.34399" lon="4.25397">
        <ele>276.99</ele>
        <time>2017-10-20T08:29:38Z</time>
      </trkpt>
      <trkpt lat="44.34411" lon="4.25416">
        <ele>285.2</ele>
        <time>2017-10-20T08:30:25Z</time>
      </trkpt>
      <trkpt lat="44.3441" lon="4.25441">
        <ele>296.84</ele>
        <time>2017-10-20T08:31:01Z</time>
      </trkpt>
      <trkpt lat="44.34405" lon="4.25466">
        <ele>298.96</ele>
        <time>2017-10-20T08:31:29Z</time>
      </trkpt>
      <trkpt lat="44.34401" lon="4.2549">
        <ele>300.4</ele>
        <time>2017-10-20T08:32:08Z</time>
      </trkpt>
      <trkpt lat="44.34383" lon="4.25499">
        <ele>306.77</ele>
        <time>2017-10-20T08:33:17Z</time>
      </trkpt>
      <trkpt lat="44.34366" lon="4.25508">
        <ele>307.18</ele>
        <time>2017-10-20T08:33:46Z</time>
      </trkpt>
      <trkpt lat="44.34348" lon="4.25511">
        <ele>310.32</ele>
        <time>2017-10-20T08:34:08Z</time>
      </trkpt>
      <trkpt lat="44.3433" lon="4.25522">
        <ele>311.22</ele>
        <time>2017-10-20T08:34:43Z</time>
      </trkpt>
      <trkpt lat="44.34312" lon="4.25521">
        <ele>313.04</ele>
        <time>2017-10-20T08:35:12Z</time>
      </trkpt>
      <trkpt lat="44.34294" lon="4.25524">
        <ele>314.86</ele>
        <time>2017-10-20T08:35:56Z</time>
      </trkpt>
      <trkpt lat="44.34279" lon="4.25538">
        <ele>315.78</ele>
        <time>2017-10-20T08:36:15Z</time>
      </trkpt>
      <trkpt lat="44.34268" lon="4.25559">
        <ele>313.3</ele>
        <time>2017-10-20T08:36:35Z</time>
      </trkpt>
      <trkpt lat="44.34267" lon="4.25585">
        <ele>310.94</ele>
        <time>2017-10-20T08:36:54Z</time>
      </trkpt>
      <trkpt lat="44.3427" lon="4.2561">
        <ele>309.1</ele>
        <time>2017-10-20T08:37:10Z</time>
      </trkpt>
      <trkpt lat="44.34273" lon="4.25635">
        <ele>308.27</ele>
        <time>2017-10-20T08:37:28Z</time>
      </trkpt>
      <trkpt lat="44.34279" lon="4.25659">
        <ele>315.16</ele>
        <time>2017-10-20T08:37:48Z</time>
      </trkpt>
      <trkpt lat="44.34289" lon="4.2568">
        <ele>319.77</ele>
        <time>2017-10-20T08:38:09Z</time>
      </trkpt>
      <trkpt lat="44.34296" lon="4.25705">
        <ele>320.13</ele>
        <time>2017-10-20T08:38:32Z</time>
      </trkpt>
      <trkpt lat="44.34304" lon="4.25728">
        <ele>319.53</ele>
        <time>2017-10-20T08:38:55Z</time>
      </trkpt>
      <trkpt lat="44.3431" lon="4.25752">
        <ele>320.08</ele>
        <time>2017-10-20T08:39:13Z</time>
      </trkpt>
      <trkpt lat="44.34313" lon="4.25777">
        <ele>324.16</ele>
        <time>2017-10-20T08:39:30Z</time>
      </trkpt>
      <trkpt lat="44.34321" lon="4.258">
        <ele>324.29</ele>
        <time>2017-10-20T08:40:40Z</time>
      </trkpt>
      <trkpt lat="44.34319" lon="4.25825">
        <ele>327.23</ele>
        <time>2017-10-20T08:41:11Z</time>
      </trkpt>
      <trkpt lat="44.34326" lon="4.25849">
        <ele>330.16</ele>
        <time>2017-10-20T08:42:14Z</time>
      </trkpt>
      <trkpt lat="44.34333" lon="4.25874">
        <ele>330.24</ele>
        <time>2017-10-20T08:42:34Z</time>
      </trkpt>
      <trkpt lat="44.34344" lon="4.25894">
        <ele>325.94</ele>
        <time>2017-10-20T08:42:55Z</time>
      </trkpt>
      <trkpt lat="44.34353" lon="4.25916">
        <ele>330.07</ele>
        <time>2017-10-20T08:43:11Z</time>
      </trkpt>
      <trkpt lat="44.34356" lon="4.25941">
        <ele>332</ele>
        <time>2017-10-20T08:43:32Z</time>
      </trkpt>
      <trkpt lat="44.34346" lon="4.25963">
        <ele>337.15</ele>
        <time>2017-10-20T08:43:55Z</time>
      </trkpt>
      <trkpt lat="44.34335" lon="4.25985">
        <ele>338.88</ele>
        <time>2017-10-20T08:44:13Z</time>
      </trkpt>
      <trkpt lat="44.34318" lon="4.2599">
        <ele>337.78</ele>
        <time>2017-10-20T08:44:32Z</time>
      </trkpt>
      <trkpt lat="44.34302" lon="4.26004">
        <ele>337.59</ele>
        <time>2017-10-20T08:44:51Z</time>
      </trkpt>
      <trkpt lat="44.34283" lon="4.26007">
        <ele>349.33</ele>
        <time>2017-10-20T08:45:12Z</time>
      </trkpt>
      <trkpt lat="44.3427" lon="4.26024">
        <ele>347.34</ele>
        <time>2017-10-20T08:45:35Z</time>
      </trkpt>
      <trkpt lat="44.34261" lon="4.26046">
        <ele>348</ele>
        <time>2017-10-20T08:45:56Z</time>
      </trkpt>
      <trkpt lat="44.34249" lon="4.26065">
        <ele>344.51</ele>
        <time>2017-10-20T08:46:13Z</time>
      </trkpt>
      <trkpt lat="44.3424" lon="4.26089">
        <ele>348.13</ele>
        <time>2017-10-20T08:46:31Z</time>
      </trkpt>
      <trkpt lat="44.34238" lon="4.26114">
        <ele>342.17</ele>
        <time>2017-10-20T08:46:49Z</time>
      </trkpt>
      <trkpt lat="44.34225" lon="4.26134">
        <ele>348.16</ele>
        <time>2017-10-20T08:47:04Z</time>
      </trkpt>
      <trkpt lat="44.34212" lon="4.26152">
        <ele>338.2</ele>
        <time>2017-10-20T08:47:21Z</time>
      </trkpt>
      <trkpt lat="44.34194" lon="4.26145">
        <ele>343.36</ele>
        <time>2017-10-20T08:47:34Z</time>
      </trkpt>
      <trkpt lat="44.34181" lon="4.26129">
        <ele>350.15</ele>
        <time>2017-10-20T08:47:56Z</time>
      </trkpt>
      <trkpt lat="44.34163" lon="4.26119">
        <ele>353.94</ele>
        <time>2017-10-20T08:48:17Z</time>
      </trkpt>
      <trkpt lat="44.34147" lon="4.26105">
        <ele>353.97</ele>
        <time>2017-10-20T08:48:37Z</time>
      </trkpt>
      <trkpt lat="44.3413" lon="4.26098">
        <ele>356.14</ele>
        <time>2017-10-20T08:48:59Z</time>
      </trkpt>
      <trkpt lat="44.34113" lon="4.26088">
        <ele>359.18</ele>
        <time>2017-10-20T08:49:27Z</time>
      </trkpt>
      <trkpt lat="44.34095" lon="4.26081">
        <ele>363.98</ele>
        <time>2017-10-20T08:49:46Z</time>
      </trkpt>
      <trkpt lat="44.34076" lon="4.26078">
        <ele>363.47</ele>
        <time>2017-10-20T08:50:14Z</time>
      </trkpt>
      <trkpt lat="44.34061" lon="4.26091">
        <ele>367.84</ele>
        <time>2017-10-20T08:50:40Z</time>
      </trkpt>
      <trkpt lat="44.3405" lon="4.26111">
        <ele>378.16</ele>
        <time>2017-10-20T08:55:36Z</time>
      </trkpt>
      <trkpt lat="44.34066" lon="4.26125">
        <ele>380.29</ele>
        <time>2017-10-20T08:58:34Z</time>
      </trkpt>
      <trkpt lat="44.34085" lon="4.26132">
        <ele>371.94</ele>
        <time>2017-10-20T08:58:51Z</time>
      </trkpt>
      <trkpt lat="44.34101" lon="4.26143">
        <ele>374.93</ele>
        <time>2017-10-20T08:59:05Z</time>
      </trkpt>
      <trkpt lat="44.34115" lon="4.2616">
        <ele>374.01</ele>
        <time>2017-10-20T08:59:28Z</time>
      </trkpt>
      <trkpt lat="44.34132" lon="4.26172">
        <ele>371.77</ele>
        <time>2017-10-20T08:59:45Z</time>
      </trkpt>
      <trkpt lat="44.34147" lon="4.26188">
        <ele>377.5</ele>
        <time>2017-10-20T09:00:10Z</time>
      </trkpt>
      <trkpt lat="44.34164" lon="4.26194">
        <ele>377.43</ele>
        <time>2017-10-20T09:00:21Z</time>
      </trkpt>
      <trkpt lat="44.34181" lon="4.26206">
        <ele>374.54</ele>
        <time>2017-10-20T09:00:42Z</time>
      </trkpt>
      <trkpt lat="44.34197" lon="4.26216">
        <ele>376.95</ele>
        <time>2017-10-20T09:00:56Z</time>
      </trkpt>
      <trkpt lat="44.34215" lon="4.2622">
        <ele>373.48</ele>
        <time>2017-10-20T09:01:12Z</time>
      </trkpt>
      <trkpt lat="44.3423" lon="4.26205">
        <ele>370.22</ele>
        <time>2017-10-20T09:01:38Z</time>
      </trkpt>
      <trkpt lat="44.34248" lon="4.26204">
        <ele>370.16</ele>
        <time>2017-10-20T09:01:49Z</time>
      </trkpt>
      <trkpt lat="44.34266" lon="4.26193">
        <ele>367.98</ele>
        <time>2017-10-20T09:02:05Z</time>
      </trkpt>
      <trkpt lat="44.34282" lon="4.26182">
        <ele>366.26</ele>
        <time>2017-10-20T09:02:21Z</time>
      </trkpt>
      <trkpt lat="44.343" lon="4.26174">
        <ele>371.92</ele>
        <time>2017-10-20T09:02:44Z</time>
      </trkpt>
      <trkpt lat="44.34296" lon="4.26199">
        <ele>378.37</ele>
        <time>2017-10-20T09:03:10Z</time>
      </trkpt>
      <trkpt lat="44.34292" lon="4.26224">
        <ele>379.86</ele>
        <time>2017-10-20T09:03:33Z</time>
      </trkpt>
      <trkpt lat="44.34287" lon="4.26249">
        <ele>381.28</ele>
        <time>2017-10-20T09:03:51Z</time>
      </trkpt>
      <trkpt lat="44.34286" lon="4.26275">
        <ele>380.42</ele>
        <time>2017-10-20T09:04:09Z</time>
      </trkpt>
      <trkpt lat="44.34289" lon="4.26301">
        <ele>381.06</ele>
        <time>2017-10-20T09:04:28Z</time>
      </trkpt>
      <trkpt lat="44.34297" lon="4.26324">
        <ele>388.1</ele>
        <time>2017-10-20T09:04:43Z</time>
      </trkpt>
      <trkpt lat="44.34308" lon="4.26346">
        <ele>393.17</ele>
        <time>2017-10-20T09:05:06Z</time>
      </trkpt>
      <trkpt lat="44.34316" lon="4.2637">
        <ele>389.87</ele>
        <time>2017-10-20T09:05:21Z</time>
      </trkpt>
      <trkpt lat="44.34334" lon="4.26374">
        <ele>382.25</ele>
        <time>2017-10-20T09:05:38Z</time>
      </trkpt>
      <trkpt lat="44.34351" lon="4.26382">
        <ele>382.19</ele>
        <time>2017-10-20T09:05:55Z</time>
      </trkpt>
      <trkpt lat="44.34367" lon="4.26397">
        <ele>382.16</ele>
        <time>2017-10-20T09:06:15Z</time>
      </trkpt>
      <trkpt lat="44.34372" lon="4.26423">
        <ele>382.46</ele>
        <time>2017-10-20T09:06:32Z</time>
      </trkpt>
      <trkpt lat="44.34386" lon="4.26441">
        <ele>379.07</ele>
        <time>2017-10-20T09:06:49Z</time>
      </trkpt>
      <trkpt lat="44.34398" lon="4.26458">
        <ele>378.15</ele>
        <time>2017-10-20T09:07:40Z</time>
      </trkpt>
      <trkpt lat="44.344" lon="4.26484">
        <ele>377.16</ele>
        <time>2017-10-20T09:07:56Z</time>
      </trkpt>
      <trkpt lat="44.3441" lon="4.26507">
        <ele>376.16</ele>
        <time>2017-10-20T09:08:14Z</time>
      </trkpt>
      <trkpt lat="44.34424" lon="4.26522">
        <ele>378.18</ele>
        <time>2017-10-20T09:08:34Z</time>
      </trkpt>
      <trkpt lat="44.34432" lon="4.26546">
        <ele>375.28</ele>
        <time>2017-10-20T09:08:55Z</time>
      </trkpt>
      <trkpt lat="44.34445" lon="4.26565">
        <ele>367.35</ele>
        <time>2017-10-20T09:09:11Z</time>
      </trkpt>
      <trkpt lat="44.34458" lon="4.26582">
        <ele>370.86</ele>
        <time>2017-10-20T09:11:41Z</time>
      </trkpt>
      <trkpt lat="44.34471" lon="4.266">
        <ele>369.86</ele>
        <time>2017-10-20T09:12:01Z</time>
      </trkpt>
      <trkpt lat="44.34488" lon="4.26611">
        <ele>369.83</ele>
        <time>2017-10-20T09:12:37Z</time>
      </trkpt>
      <trkpt lat="44.34498" lon="4.26632">
        <ele>369.43</ele>
        <time>2017-10-20T09:12:51Z</time>
      </trkpt>
      <trkpt lat="44.34507" lon="4.26655">
        <ele>376.89</ele>
        <time>2017-10-20T09:13:07Z</time>
      </trkpt>
      <trkpt lat="44.34522" lon="4.26672">
        <ele>378.95</ele>
        <time>2017-10-20T09:13:30Z</time>
      </trkpt>
      <trkpt lat="44.34536" lon="4.26688">
        <ele>375.26</ele>
        <time>2017-10-20T09:13:51Z</time>
      </trkpt>
      <trkpt lat="44.34553" lon="4.26702">
        <ele>381.15</ele>
        <time>2017-10-20T09:14:12Z</time>
      </trkpt>
      <trkpt lat="44.3457" lon="4.26711">
        <ele>377.08</ele>
        <time>2017-10-20T09:14:31Z</time>
      </trkpt>
      <trkpt lat="44.34587" lon="4.26719">
        <ele>376.25</ele>
        <time>2017-10-20T09:14:48Z</time>
      </trkpt>
      <trkpt lat="44.34605" lon="4.2672">
        <ele>378.15</ele>
        <time>2017-10-20T09:15:19Z</time>
      </trkpt>
      <trkpt lat="44.34623" lon="4.26726">
        <ele>380.08</ele>
        <time>2017-10-20T09:15:38Z</time>
      </trkpt>
      <trkpt lat="44.34641" lon="4.2673">
        <ele>380.16</ele>
        <time>2017-10-20T09:16:02Z</time>
      </trkpt>
      <trkpt lat="44.34658" lon="4.26728">
        <ele>380.14</ele>
        <time>2017-10-20T09:16:23Z</time>
      </trkpt>
      <trkpt lat="44.34676" lon="4.26719">
        <ele>387.86</ele>
        <time>2017-10-20T09:16:52Z</time>
      </trkpt>
      <trkpt lat="44.34692" lon="4.26707">
        <ele>387.17</ele>
        <time>2017-10-20T09:17:14Z</time>
      </trkpt>
      <trkpt lat="44.34704" lon="4.26686">
        <ele>389.16</ele>
        <time>2017-10-20T09:17:32Z</time>
      </trkpt>
      <trkpt lat="44.34718" lon="4.26668">
        <ele>390.95</ele>
        <time>2017-10-20T09:17:52Z</time>
      </trkpt>
      <trkpt lat="44.34725" lon="4.26644">
        <ele>383.17</ele>
        <time>2017-10-20T09:19:08Z</time>
      </trkpt>
      <trkpt lat="44.34732" lon="4.2662">
        <ele>385.08</ele>
        <time>2017-10-20T09:19:27Z</time>
      </trkpt>
      <trkpt lat="44.34736" lon="4.26595">
        <ele>386.09</ele>
        <time>2017-10-20T09:19:44Z</time>
      </trkpt>
      <trkpt lat="44.34738" lon="4.26569">
        <ele>387.16</ele>
        <time>2017-10-20T09:20:05Z</time>
      </trkpt>
      <trkpt lat="44.34744" lon="4.26592">
        <ele>402.13</ele>
        <time>2017-10-20T09:21:11Z</time>
      </trkpt>
      <trkpt lat="44.34746" lon="4.26618">
        <ele>402.86</ele>
        <time>2017-10-20T09:22:16Z</time>
      </trkpt>
      <trkpt lat="44.34755" lon="4.26641">
        <ele>403.45</ele>
        <time>2017-10-20T09:23:37Z</time>
      </trkpt>
      <trkpt lat="44.34765" lon="4.26662">
        <ele>408.48</ele>
        <time>2017-10-20T09:24:46Z</time>
      </trkpt>
      <trkpt lat="44.34773" lon="4.26685">
        <ele>411.14</ele>
        <time>2017-10-20T09:25:19Z</time>
      </trkpt>
      <trkpt lat="44.34783" lon="4.26706">
        <ele>419.17</ele>
        <time>2017-10-20T09:26:04Z</time>
      </trkpt>
      <trkpt lat="44.34801" lon="4.26713">
        <ele>427.12</ele>
        <time>2017-10-20T10:09:17Z</time>
      </trkpt>
      <trkpt lat="44.34816" lon="4.26727">
        <ele>429.07</ele>
        <time>2017-10-20T10:10:43Z</time>
      </trkpt>
      <trkpt lat="44.34801" lon="4.26713">
        <ele>425.22</ele>
        <time>2017-10-20T10:14:26Z</time>
      </trkpt>
      <trkpt lat="44.34784" lon="4.26703">
        <ele>424.25</ele>
        <time>2017-10-20T10:32:27Z</time>
      </trkpt>
      <trkpt lat="44.34769" lon="4.26687">
        <ele>421.47</ele>
        <time>2017-10-20T10:33:59Z</time>
      </trkpt>
      <trkpt lat="44.34757" lon="4.26668">
        <ele>412.38</ele>
        <time>2017-10-20T10:34:26Z</time>
      </trkpt>
      <trkpt lat="44.34754" lon="4.26643">
        <ele>409.91</ele>
        <time>2017-10-20T10:35:09Z</time>
      </trkpt>
      <trkpt lat="44.34751" lon="4.26617">
        <ele>402.45</ele>
        <time>2017-10-20T10:35:50Z</time>
      </trkpt>
      <trkpt lat="44.34745" lon="4.26592">
        <ele>400.66</ele>
        <time>2017-10-20T10:36:28Z</time>
      </trkpt>
      <trkpt lat="44.34743" lon="4.26566">
        <ele>401.79</ele>
        <time>2017-10-20T10:36:54Z</time>
      </trkpt>
      <trkpt lat="44.34734" lon="4.26588">
        <ele>395.19</ele>
        <time>2017-10-20T10:37:53Z</time>
      </trkpt>
      <trkpt lat="44.34733" lon="4.26613">
        <ele>394.16</ele>
        <time>2017-10-20T10:38:12Z</time>
      </trkpt>
      <trkpt lat="44.34725" lon="4.26637">
        <ele>395.18</ele>
        <time>2017-10-20T10:38:29Z</time>
      </trkpt>
      <trkpt lat="44.34717" lon="4.2666">
        <ele>392.4</ele>
        <time>2017-10-20T10:38:47Z</time>
      </trkpt>
      <trkpt lat="44.34704" lon="4.26679">
        <ele>391.86</ele>
        <time>2017-10-20T10:39:04Z</time>
      </trkpt>
      <trkpt lat="44.34694" lon="4.26701">
        <ele>391.75</ele>
        <time>2017-10-20T10:39:21Z</time>
      </trkpt>
      <trkpt lat="44.34679" lon="4.26717">
        <ele>388.4</ele>
        <time>2017-10-20T10:39:55Z</time>
      </trkpt>
      <trkpt lat="44.34661" lon="4.26725">
        <ele>381.19</ele>
        <time>2017-10-20T10:40:33Z</time>
      </trkpt>
      <trkpt lat="44.34643" lon="4.26724">
        <ele>381.47</ele>
        <time>2017-10-20T10:40:47Z</time>
      </trkpt>
      <trkpt lat="44.34624" lon="4.26724">
        <ele>380.25</ele>
        <time>2017-10-20T10:41:15Z</time>
      </trkpt>
      <trkpt lat="44.34604" lon="4.2672">
        <ele>374.17</ele>
        <time>2017-10-20T10:41:39Z</time>
      </trkpt>
      <trkpt lat="44.34586" lon="4.26713">
        <ele>375.26</ele>
        <time>2017-10-20T10:41:55Z</time>
      </trkpt>
      <trkpt lat="44.34569" lon="4.26702">
        <ele>375.25</ele>
        <time>2017-10-20T10:42:23Z</time>
      </trkpt>
      <trkpt lat="44.3455" lon="4.26696">
        <ele>376.86</ele>
        <time>2017-10-20T10:42:41Z</time>
      </trkpt>
      <trkpt lat="44.34535" lon="4.26683">
        <ele>378.73</ele>
        <time>2017-10-20T10:43:04Z</time>
      </trkpt>
      <trkpt lat="44.34521" lon="4.26667">
        <ele>371.42</ele>
        <time>2017-10-20T10:43:23Z</time>
      </trkpt>
      <trkpt lat="44.34507" lon="4.2665">
        <ele>366.88</ele>
        <time>2017-10-20T10:43:48Z</time>
      </trkpt>
      <trkpt lat="44.34499" lon="4.26627">
        <ele>364.19</ele>
        <time>2017-10-20T10:44:19Z</time>
      </trkpt>
      <trkpt lat="44.34486" lon="4.26606">
        <ele>370.15</ele>
        <time>2017-10-20T10:44:30Z</time>
      </trkpt>
      <trkpt lat="44.34471" lon="4.26589">
        <ele>369.13</ele>
        <time>2017-10-20T10:44:49Z</time>
      </trkpt>
      <trkpt lat="44.34461" lon="4.26567">
        <ele>367.12</ele>
        <time>2017-10-20T10:45:06Z</time>
      </trkpt>
      <trkpt lat="44.3448" lon="4.26565">
        <ele>365.36</ele>
        <time>2017-10-20T10:45:33Z</time>
      </trkpt>
      <trkpt lat="44.34497" lon="4.26574">
        <ele>365.26</ele>
        <time>2017-10-20T10:45:46Z</time>
      </trkpt>
      <trkpt lat="44.34511" lon="4.26589">
        <ele>355.08</ele>
        <time>2017-10-20T10:46:17Z</time>
      </trkpt>
      <trkpt lat="44.34529" lon="4.26598">
        <ele>356.03</ele>
        <time>2017-10-20T10:46:37Z</time>
      </trkpt>
      <trkpt lat="44.34545" lon="4.26609">
        <ele>361.12</ele>
        <time>2017-10-20T10:46:44Z</time>
      </trkpt>
      <trkpt lat="44.34564" lon="4.26607">
        <ele>361.07</ele>
        <time>2017-10-20T10:47:29Z</time>
      </trkpt>
      <trkpt lat="44.34582" lon="4.26612">
        <ele>357.24</ele>
        <time>2017-10-20T10:47:49Z</time>
      </trkpt>
      <trkpt lat="44.34601" lon="4.26612">
        <ele>356.94</ele>
        <time>2017-10-20T10:48:07Z</time>
      </trkpt>
      <trkpt lat="44.34619" lon="4.26604">
        <ele>352.13</ele>
        <time>2017-10-20T10:48:29Z</time>
      </trkpt>
      <trkpt lat="44.34624" lon="4.26578">
        <ele>346.54</ele>
        <time>2017-10-20T10:49:05Z</time>
      </trkpt>
      <trkpt lat="44.3462" lon="4.26551">
        <ele>343.78</ele>
        <time>2017-10-20T10:49:25Z</time>
      </trkpt>
      <trkpt lat="44.34612" lon="4.26529">
        <ele>344.11</ele>
        <time>2017-10-20T10:49:47Z</time>
      </trkpt>
      <trkpt lat="44.34604" lon="4.26503">
        <ele>341.3</ele>
        <time>2017-10-20T10:50:07Z</time>
      </trkpt>
      <trkpt lat="44.34608" lon="4.26478">
        <ele>338.08</ele>
        <time>2017-10-20T10:50:28Z</time>
      </trkpt>
      <trkpt lat="44.34612" lon="4.26453">
        <ele>330.49</ele>
        <time>2017-10-20T10:50:45Z</time>
      </trkpt>
      <trkpt lat="44.34618" lon="4.26429">
        <ele>329.16</ele>
        <time>2017-10-20T10:51:09Z</time>
      </trkpt>
      <trkpt lat="44.3463" lon="4.26409">
        <ele>328.77</ele>
        <time>2017-10-20T10:51:27Z</time>
      </trkpt>
      <trkpt lat="44.34637" lon="4.26386">
        <ele>324.16</ele>
        <time>2017-10-20T10:51:47Z</time>
      </trkpt>
      <trkpt lat="44.34645" lon="4.26363">
        <ele>320.21</ele>
        <time>2017-10-20T10:52:10Z</time>
      </trkpt>
      <trkpt lat="44.34655" lon="4.26341">
        <ele>315.45</ele>
        <time>2017-10-20T10:52:34Z</time>
      </trkpt>
      <trkpt lat="44.34667" lon="4.26323">
        <ele>309.24</ele>
        <time>2017-10-20T10:52:52Z</time>
      </trkpt>
      <trkpt lat="44.34679" lon="4.26302">
        <ele>301.28</ele>
        <time>2017-10-20T10:53:13Z</time>
      </trkpt>
      <trkpt lat="44.34693" lon="4.26287">
        <ele>306.23</ele>
        <time>2017-10-20T10:53:32Z</time>
      </trkpt>
      <trkpt lat="44.34708" lon="4.2627">
        <ele>300.37</ele>
        <time>2017-10-20T10:53:50Z</time>
      </trkpt>
      <trkpt lat="44.34722" lon="4.26254">
        <ele>294.48</ele>
        <time>2017-10-20T10:54:11Z</time>
      </trkpt>
      <trkpt lat="44.34738" lon="4.2624">
        <ele>294.64</ele>
        <time>2017-10-20T10:54:29Z</time>
      </trkpt>
      <trkpt lat="44.34754" lon="4.26228">
        <ele>289.07</ele>
        <time>2017-10-20T10:54:47Z</time>
      </trkpt>
      <trkpt lat="44.34769" lon="4.26212">
        <ele>289.16</ele>
        <time>2017-10-20T10:55:07Z</time>
      </trkpt>
      <trkpt lat="44.34782" lon="4.26194">
        <ele>286.19</ele>
        <time>2017-10-20T10:56:40Z</time>
      </trkpt>
      <trkpt lat="44.34795" lon="4.26176">
        <ele>285.05</ele>
        <time>2017-10-20T10:57:28Z</time>
      </trkpt>
      <trkpt lat="44.3481" lon="4.2616">
        <ele>286.21</ele>
        <time>2017-10-20T10:57:50Z</time>
      </trkpt>
      <trkpt lat="44.34823" lon="4.26141">
        <ele>270.47</ele>
        <time>2017-10-20T10:58:12Z</time>
      </trkpt>
      <trkpt lat="44.3484" lon="4.26128">
        <ele>272.49</ele>
        <time>2017-10-20T10:58:33Z</time>
      </trkpt>
      <trkpt lat="44.34855" lon="4.26111">
        <ele>265.47</ele>
        <time>2017-10-20T10:59:37Z</time>
      </trkpt>
      <trkpt lat="44.34872" lon="4.26102">
        <ele>261.17</ele>
        <time>2017-10-20T10:59:59Z</time>
      </trkpt>
      <trkpt lat="44.3489" lon="4.26107">
        <ele>256.89</ele>
        <time>2017-10-20T11:00:36Z</time>
      </trkpt>
      <trkpt lat="44.34909" lon="4.26105">
        <ele>256.98</ele>
        <time>2017-10-20T11:00:58Z</time>
      </trkpt>
      <trkpt lat="44.34925" lon="4.26093">
        <ele>254.34</ele>
        <time>2017-10-20T11:01:22Z</time>
      </trkpt>
      <trkpt lat="44.34943" lon="4.26092">
        <ele>249.46</ele>
        <time>2017-10-20T11:01:38Z</time>
      </trkpt>
      <trkpt lat="44.34958" lon="4.26077">
        <ele>246.48</ele>
        <time>2017-10-20T11:02:02Z</time>
      </trkpt>
      <trkpt lat="44.34973" lon="4.26062">
        <ele>246.25</ele>
        <time>2017-10-20T11:03:57Z</time>
      </trkpt>
      <trkpt lat="44.3499" lon="4.26051">
        <ele>241.19</ele>
        <time>2017-10-20T11:04:16Z</time>
      </trkpt>
      <trkpt lat="44.35006" lon="4.26038">
        <ele>242.17</ele>
        <time>2017-10-20T11:04:35Z</time>
      </trkpt>
      <trkpt lat="44.35023" lon="4.26033">
        <ele>243.09</ele>
        <time>2017-10-20T11:04:57Z</time>
      </trkpt>
      <trkpt lat="44.3504" lon="4.26025">
        <ele>237.2</ele>
        <time>2017-10-20T11:05:17Z</time>
      </trkpt>
      <trkpt lat="44.35057" lon="4.26013">
        <ele>235.16</ele>
        <time>2017-10-20T11:05:46Z</time>
      </trkpt>
      <trkpt lat="44.35076" lon="4.26011">
        <ele>231.24</ele>
        <time>2017-10-20T11:06:05Z</time>
      </trkpt>
      <trkpt lat="44.35094" lon="4.26014">
        <ele>226.4</ele>
        <time>2017-10-20T11:06:22Z</time>
      </trkpt>
      <trkpt lat="44.3508" lon="4.25997">
        <ele>222.07</ele>
        <time>2017-10-20T11:07:10Z</time>
      </trkpt>
      <trkpt lat="44.35063" lon="4.25983">
        <ele>222.12</ele>
        <time>2017-10-20T11:07:29Z</time>
      </trkpt>
      <trkpt lat="44.35075" lon="4.25964">
        <ele>220.83</ele>
        <time>2017-10-20T11:08:08Z</time>
      </trkpt>
      <trkpt lat="44.35093" lon="4.25969">
        <ele>217.56</ele>
        <time>2017-10-20T11:08:31Z</time>
      </trkpt>
      <trkpt lat="44.35111" lon="4.25965">
        <ele>213.46</ele>
        <time>2017-10-20T11:08:54Z</time>
      </trkpt>
      <trkpt lat="44.35129" lon="4.25956">
        <ele>203.91</ele>
        <time>2017-10-20T11:09:20Z</time>
      </trkpt>
      <trkpt lat="44.35147" lon="4.25955">
        <ele>202.94</ele>
        <time>2017-10-20T11:09:36Z</time>
      </trkpt>
      <trkpt lat="44.35166" lon="4.25954">
        <ele>208.17</ele>
        <time>2017-10-20T11:09:54Z</time>
      </trkpt>
      <trkpt lat="44.35184" lon="4.25948">
        <ele>202.2</ele>
        <time>2017-10-20T11:10:12Z</time>
      </trkpt>
      <trkpt lat="44.35201" lon="4.25954">
        <ele>200.76</ele>
        <time>2017-10-20T11:10:47Z</time>
      </trkpt>
      <trkpt lat="44.3522" lon="4.25954">
        <ele>195.85</ele>
        <time>2017-10-20T11:11:12Z</time>
      </trkpt>
      <trkpt lat="44.35235" lon="4.25936">
        <ele>194.64</ele>
        <time>2017-10-20T11:11:36Z</time>
      </trkpt>
      <trkpt lat="44.35247" lon="4.25917">
        <ele>196.16</ele>
        <time>2017-10-20T11:12:02Z</time>
      </trkpt>
      <trkpt lat="44.35261" lon="4.25901">
        <ele>202.83</ele>
        <time>2017-10-20T11:12:37Z</time>
      </trkpt>
      <trkpt lat="44.35275" lon="4.25884">
        <ele>198.18</ele>
        <time>2017-10-20T11:12:58Z</time>
      </trkpt>
      <trkpt lat="44.35289" lon="4.25868">
        <ele>201.93</ele>
        <time>2017-10-20T11:13:13Z</time>
      </trkpt>
      <trkpt lat="44.35302" lon="4.2585">
        <ele>201.1</ele>
        <time>2017-10-20T11:13:29Z</time>
      </trkpt>
      <trkpt lat="44.35311" lon="4.25826">
        <ele>194.07</ele>
        <time>2017-10-20T11:13:47Z</time>
      </trkpt>
      <trkpt lat="44.35309" lon="4.25801">
        <ele>203.15</ele>
        <time>2017-10-20T11:14:17Z</time>
      </trkpt>
      <trkpt lat="44.35314" lon="4.25777">
        <ele>205.89</ele>
        <time>2017-10-20T11:15:01Z</time>
      </trkpt>
      <trkpt lat="44.35323" lon="4.25752">
        <ele>203.79</ele>
        <time>2017-10-20T11:15:52Z</time>
      </trkpt>
      <trkpt lat="44.35329" lon="4.25728">
        <ele>202.13</ele>
        <time>2017-10-20T11:16:16Z</time>
      </trkpt>
      <trkpt lat="44.35335" lon="4.25704">
        <ele>200.19</ele>
        <time>2017-10-20T11:16:35Z</time>
      </trkpt>
      <trkpt lat="44.35341" lon="4.25679">
        <ele>198.16</ele>
        <time>2017-10-20T11:17:09Z</time>
      </trkpt>
      <trkpt lat="44.35347" lon="4.25656">
        <ele>197.09</ele>
        <time>2017-10-20T11:17:28Z</time>
      </trkpt>
      <trkpt lat="44.35356" lon="4.25632">
        <ele>193.46</ele>
        <time>2017-10-20T11:17:53Z</time>
      </trkpt>
      <trkpt lat="44.35362" lon="4.25607">
        <ele>192.77</ele>
        <time>2017-10-20T11:18:04Z</time>
      </trkpt>
      <trkpt lat="44.35367" lon="4.25582">
        <ele>194.55</ele>
        <time>2017-10-20T11:18:16Z</time>
      </trkpt>
      <trkpt lat="44.35366" lon="4.25556">
        <ele>189.69</ele>
        <time>2017-10-20T11:18:37Z</time>
      </trkpt>
      <trkpt lat="44.35368" lon="4.25529">
        <ele>194.37</ele>
        <time>2017-10-20T11:18:48Z</time>
      </trkpt>
      <trkpt lat="44.35372" lon="4.25505">
        <ele>189.25</ele>
        <time>2017-10-20T11:19:07Z</time>
      </trkpt>
      <trkpt lat="44.35378" lon="4.2548">
        <ele>187.19</ele>
        <time>2017-10-20T11:19:25Z</time>
      </trkpt>
      <trkpt lat="44.35385" lon="4.25457">
        <ele>182.56</ele>
        <time>2017-10-20T11:19:42Z</time>
      </trkpt>
      <trkpt lat="44.35389" lon="4.25431">
        <ele>176.86</ele>
        <time>2017-10-20T11:20:01Z</time>
      </trkpt>
      <trkpt lat="44.35391" lon="4.25405">
        <ele>179.13</ele>
        <time>2017-10-20T11:20:16Z</time>
      </trkpt>
      <trkpt lat="44.35393" lon="4.25379">
        <ele>179.22</ele>
        <time>2017-10-20T11:20:35Z</time>
      </trkpt>
      <trkpt lat="44.35398" lon="4.25355">
        <ele>179.54</ele>
        <time>2017-10-20T11:20:50Z</time>
      </trkpt>
      <trkpt lat="44.35407" lon="4.25331">
        <ele>179.47</ele>
        <time>2017-10-20T11:21:07Z</time>
      </trkpt>
      <trkpt lat="44.35418" lon="4.2531">
        <ele>181.36</ele>
        <time>2017-10-20T11:21:42Z</time>
      </trkpt>
      <trkpt lat="44.35425" lon="4.25287">
        <ele>181.51</ele>
        <time>2017-10-20T11:22:05Z</time>
      </trkpt>
      <trkpt lat="44.35434" lon="4.25265">
        <ele>176.87</ele>
        <time>2017-10-20T11:22:20Z</time>
      </trkpt>
      <trkpt lat="44.35441" lon="4.2524">
        <ele>177.16</ele>
        <time>2017-10-20T11:22:35Z</time>
      </trkpt>
      <trkpt lat="44.35444" lon="4.25214">
        <ele>177.15</ele>
        <time>2017-10-20T11:22:52Z</time>
      </trkpt>
      <trkpt lat="44.35442" lon="4.25186">
        <ele>169.77</ele>
        <time>2017-10-20T11:23:43Z</time>
      </trkpt>
      <trkpt lat="44.35449" lon="4.25161">
        <ele>171.66</ele>
        <time>2017-10-20T11:23:53Z</time>
      </trkpt>
      <trkpt lat="44.3545" lon="4.25134">
        <ele>170.46</ele>
        <time>2017-10-20T11:24:07Z</time>
      </trkpt>
      <trkpt lat="44.35454" lon="4.25108">
        <ele>172.05</ele>
        <time>2017-10-20T11:24:22Z</time>
      </trkpt>
      <trkpt lat="44.35453" lon="4.25082">
        <ele>171.77</ele>
        <time>2017-10-20T11:24:39Z</time>
      </trkpt>
      <trkpt lat="44.35459" lon="4.25057">
        <ele>165.29</ele>
        <time>2017-10-20T11:25:01Z</time>
      </trkpt>
      <trkpt lat="44.35467" lon="4.25034">
        <ele>164.19</ele>
        <time>2017-10-20T11:25:17Z</time>
      </trkpt>
      <trkpt lat="44.35473" lon="4.25009">
        <ele>167.1</ele>
        <time>2017-10-20T11:25:37Z</time>
      </trkpt>
      <trkpt lat="44.35477" lon="4.24984">
        <ele>169.1</ele>
        <time>2017-10-20T11:25:56Z</time>
      </trkpt>
      <trkpt lat="44.35485" lon="4.2496">
        <ele>169.69</ele>
        <time>2017-10-20T11:26:15Z</time>
      </trkpt>
      <trkpt lat="44.35501" lon="4.24948">
        <ele>171.67</ele>
        <time>2017-10-20T11:26:33Z</time>
      </trkpt>
      <trkpt lat="44.35519" lon="4.24944">
        <ele>168.67</ele>
        <time>2017-10-20T11:26:49Z</time>
      </trkpt>
      <trkpt lat="44.35523" lon="4.24919">
        <ele>166.69</ele>
        <time>2017-10-20T11:27:01Z</time>
      </trkpt>
      <trkpt lat="44.35522" lon="4.24893">
        <ele>167.45</ele>
        <time>2017-10-20T11:27:21Z</time>
      </trkpt>
      <trkpt lat="44.35508" lon="4.24875">
        <ele>166.69</ele>
        <time>2017-10-20T11:27:55Z</time>
      </trkpt>
      <trkpt lat="44.35493" lon="4.2486">
        <ele>165.69</ele>
        <time>2017-10-20T11:28:22Z</time>
      </trkpt>
      <trkpt lat="44.35482" lon="4.24839">
        <ele>164.44</ele>
        <time>2017-10-20T11:29:02Z</time>
      </trkpt>
      <trkpt lat="44.35483" lon="4.24813">
        <ele>163.37</ele>
        <time>2017-10-20T11:29:34Z</time>
      </trkpt>
      <trkpt lat="44.3549" lon="4.24789">
        <ele>168.62</ele>
        <time>2017-10-20T11:30:07Z</time>
      </trkpt>
      <trkpt lat="44.35492" lon="4.24764">
        <ele>168.02</ele>
        <time>2017-10-20T11:30:45Z</time>
      </trkpt>
      <trkpt lat="44.35493" lon="4.24738">
        <ele>166.18</ele>
        <time>2017-10-20T11:31:29Z</time>
      </trkpt>
      <trkpt lat="44.35499" lon="4.24713">
        <ele>164.94</ele>
        <time>2017-10-20T11:32:12Z</time>
      </trkpt>
      <trkpt lat="44.35504" lon="4.24689">
        <ele>163.99</ele>
        <time>2017-10-20T11:32:39Z</time>
      </trkpt>
      <trkpt lat="44.35512" lon="4.24665">
        <ele>161.04</ele>
        <time>2017-10-20T11:33:32Z</time>
      </trkpt>
      <trkpt lat="44.35518" lon="4.24639">
        <ele>161.58</ele>
        <time>2017-10-20T11:34:25Z</time>
      </trkpt>
      <trkpt lat="44.35528" lon="4.24619">
        <ele>166.68</ele>
        <time>2017-10-20T11:34:34Z</time>
      </trkpt>
      <trkpt lat="44.35535" lon="4.24595">
        <ele>163.71</ele>
        <time>2017-10-20T11:34:50Z</time>
      </trkpt>
      <trkpt lat="44.35544" lon="4.24573">
        <ele>165</ele>
        <time>2017-10-20T11:35:21Z</time>
      </trkpt>
      <trkpt lat="44.35555" lon="4.2455">
        <ele>160.72</ele>
        <time>2017-10-20T11:35:35Z</time>
      </trkpt>
      <trkpt lat="44.35563" lon="4.24527">
        <ele>161.39</ele>
        <time>2017-10-20T11:35:58Z</time>
      </trkpt>
      <trkpt lat="44.35576" lon="4.24506">
        <ele>156.69</ele>
        <time>2017-10-20T11:36:08Z</time>
      </trkpt>
      <trkpt lat="44.35594" lon="4.24493">
        <ele>157.72</ele>
        <time>2017-10-20T11:36:17Z</time>
      </trkpt>
      <trkpt lat="44.35612" lon="4.24494">
        <ele>157.71</ele>
        <time>2017-10-20T11:36:34Z</time>
      </trkpt>
      <trkpt lat="44.35631" lon="4.24491">
        <ele>156.02</ele>
        <time>2017-10-20T11:36:57Z</time>
      </trkpt>
      <trkpt lat="44.35647" lon="4.2448">
        <ele>153.99</ele>
        <time>2017-10-20T11:37:25Z</time>
      </trkpt>
      <trkpt lat="44.35661" lon="4.24461">
        <ele>149.62</ele>
        <time>2017-10-20T11:37:53Z</time>
      </trkpt>
      <trkpt lat="44.35662" lon="4.24433">
        <ele>151.6</ele>
        <time>2017-10-20T11:38:43Z</time>
      </trkpt>
      <trkpt lat="44.3566" lon="4.24407">
        <ele>151.59</ele>
        <time>2017-10-20T11:39:11Z</time>
      </trkpt>
      <trkpt lat="44.35664" lon="4.24383">
        <ele>144.81</ele>
        <time>2017-10-20T11:39:32Z</time>
      </trkpt>
      <trkpt lat="44.35663" lon="4.24357">
        <ele>147.99</ele>
        <time>2017-10-20T11:39:44Z</time>
      </trkpt>
      <trkpt lat="44.35666" lon="4.24329">
        <ele>151.1</ele>
        <time>2017-10-20T11:39:57Z</time>
      </trkpt>
      <trkpt lat="44.35663" lon="4.24304">
        <ele>143.83</ele>
        <time>2017-10-20T11:40:07Z</time>
      </trkpt>
      <trkpt lat="44.35676" lon="4.24286">
        <ele>150</ele>
        <time>2017-10-20T11:40:28Z</time>
      </trkpt>
      <trkpt lat="44.35695" lon="4.2429">
        <ele>143.05</ele>
        <time>2017-10-20T11:40:45Z</time>
      </trkpt>
      <trkpt lat="44.35713" lon="4.24289">
        <ele>144.02</ele>
        <time>2017-10-20T11:41:06Z</time>
      </trkpt>
      <trkpt lat="44.35731" lon="4.24279">
        <ele>145.69</ele>
        <time>2017-10-20T11:41:22Z</time>
      </trkpt>
      <trkpt lat="44.35749" lon="4.2427">
        <ele>146.71</ele>
        <time>2017-10-20T11:41:34Z</time>
      </trkpt>
      <trkpt lat="44.35765" lon="4.24257">
        <ele>143.18</ele>
        <time>2017-10-20T11:41:45Z</time>
      </trkpt>
      <trkpt lat="44.35776" lon="4.24235">
        <ele>147.52</ele>
        <time>2017-10-20T11:42:26Z</time>
      </trkpt>
      <trkpt lat="44.35783" lon="4.24211">
        <ele>143.61</ele>
        <time>2017-10-20T11:42:34Z</time>
      </trkpt>
      <trkpt lat="44.35789" lon="4.24187">
        <ele>140.3</ele>
        <time>2017-10-20T11:42:55Z</time>
      </trkpt>
      <trkpt lat="44.358" lon="4.24163">
        <ele>139.64</ele>
        <time>2017-10-20T11:43:06Z</time>
      </trkpt>
      <trkpt lat="44.35808" lon="4.24139">
        <ele>139.76</ele>
        <time>2017-10-20T11:43:14Z</time>
      </trkpt>
      <trkpt lat="44.35815" lon="4.24116">
        <ele>135.78</ele>
        <time>2017-10-20T11:43:24Z</time>
      </trkpt>
      <trkpt lat="44.35824" lon="4.24094">
        <ele>140.02</ele>
        <time>2017-10-20T11:43:49Z</time>
      </trkpt>
      <trkpt lat="44.35839" lon="4.24079">
        <ele>139.72</ele>
        <time>2017-10-20T11:44:03Z</time>
      </trkpt>
      <trkpt lat="44.35851" lon="4.24057">
        <ele>140.7</ele>
        <time>2017-10-20T11:44:16Z</time>
      </trkpt>
      <trkpt lat="44.3586" lon="4.24036">
        <ele>138.11</ele>
        <time>2017-10-20T11:44:33Z</time>
      </trkpt>
      <trkpt lat="44.35869" lon="4.24011">
        <ele>137.29</ele>
        <time>2017-10-20T11:44:44Z</time>
      </trkpt>
      <trkpt lat="44.35875" lon="4.23987">
        <ele>128.24</ele>
        <time>2017-10-20T11:44:55Z</time>
      </trkpt>
      <trkpt lat="44.35882" lon="4.23963">
        <ele>130.36</ele>
        <time>2017-10-20T11:45:07Z</time>
      </trkpt>
      <trkpt lat="44.35891" lon="4.2394">
        <ele>134.61</ele>
        <time>2017-10-20T11:45:18Z</time>
      </trkpt>
      <trkpt lat="44.35902" lon="4.23917">
        <ele>136.99</ele>
        <time>2017-10-20T11:45:28Z</time>
      </trkpt>
      <trkpt lat="44.35898" lon="4.23892">
        <ele>154.11</ele>
        <time>2017-10-20T11:45:42Z</time>
      </trkpt>
      <trkpt lat="44.35896" lon="4.23866">
        <ele>129.92</ele>
        <time>2017-10-20T11:46:00Z</time>
      </trkpt>
      <trkpt lat="44.35901" lon="4.23841">
        <ele>131.71</ele>
        <time>2017-10-20T11:46:13Z</time>
      </trkpt>
      <trkpt lat="44.35899" lon="4.23814">
        <ele>137.69</ele>
        <time>2017-10-20T11:46:37Z</time>
      </trkpt>
      <trkpt lat="44.35899" lon="4.23788">
        <ele>138.37</ele>
        <time>2017-10-20T11:46:53Z</time>
      </trkpt>
      <trkpt lat="44.35901" lon="4.23763">
        <ele>141.86</ele>
        <time>2017-10-20T11:47:09Z</time>
      </trkpt>
      <trkpt lat="44.35903" lon="4.23736">
        <ele>144.5</ele>
        <time>2017-10-20T11:47:25Z</time>
      </trkpt>
      <trkpt lat="44.35909" lon="4.23712">
        <ele>146.67</ele>
        <time>2017-10-20T11:47:43Z</time>
      </trkpt>
      <trkpt lat="44.35919" lon="4.2369">
        <ele>148.05</ele>
        <time>2017-10-20T11:47:58Z</time>
      </trkpt>
      <trkpt lat="44.35926" lon="4.23665">
        <ele>148.89</ele>
        <time>2017-10-20T11:48:15Z</time>
      </trkpt>
      <trkpt lat="44.35932" lon="4.23641">
        <ele>153.29</ele>
        <time>2017-10-20T11:48:32Z</time>
      </trkpt>
      <trkpt lat="44.35937" lon="4.23615">
        <ele>155.51</ele>
        <time>2017-10-20T11:48:49Z</time>
      </trkpt>
      <trkpt lat="44.35943" lon="4.23591">
        <ele>157.41</ele>
        <time>2017-10-20T11:48:59Z</time>
      </trkpt>
      <trkpt lat="44.35941" lon="4.23566">
        <ele>154.39</ele>
        <time>2017-10-20T11:49:17Z</time>
      </trkpt>
      <trkpt lat="44.35939" lon="4.23539">
        <ele>160.68</ele>
        <time>2017-10-20T11:49:37Z</time>
      </trkpt>
      <trkpt lat="44.35944" lon="4.23515">
        <ele>149.41</ele>
        <time>2017-10-20T11:49:52Z</time>
      </trkpt>
      <trkpt lat="44.35957" lon="4.23494">
        <ele>148.77</ele>
        <time>2017-10-20T11:50:14Z</time>
      </trkpt>
      <trkpt lat="44.35954" lon="4.23468">
        <ele>148.23</ele>
        <time>2017-10-20T11:50:34Z</time>
      </trkpt>
      <trkpt lat="44.35956" lon="4.23443">
        <ele>146.11</ele>
        <time>2017-10-20T11:50:47Z</time>
      </trkpt>
      <trkpt lat="44.35966" lon="4.2342">
        <ele>149.31</ele>
        <time>2017-10-20T11:51:21Z</time>
      </trkpt>
      <trkpt lat="44.35978" lon="4.234">
        <ele>148.97</ele>
        <time>2017-10-20T11:51:42Z</time>
      </trkpt>
      <trkpt lat="44.35996" lon="4.23395">
        <ele>158.86</ele>
        <time>2017-10-20T11:52:10Z</time>
      </trkpt>
      <trkpt lat="44.36014" lon="4.23387">
        <ele>156.37</ele>
        <time>2017-10-20T11:52:20Z</time>
      </trkpt>
      <trkpt lat="44.36032" lon="4.23386">
        <ele>151.86</ele>
        <time>2017-10-20T11:52:28Z</time>
      </trkpt>
      <trkpt lat="44.3605" lon="4.2338">
        <ele>155.74</ele>
        <time>2017-10-20T11:52:43Z</time>
      </trkpt>
      <trkpt lat="44.36068" lon="4.23383">
        <ele>154.56</ele>
        <time>2017-10-20T11:53:03Z</time>
      </trkpt>
      <trkpt lat="44.36087" lon="4.23391">
        <ele>151.72</ele>
        <time>2017-10-20T11:53:15Z</time>
      </trkpt>
      <trkpt lat="44.36104" lon="4.23397">
        <ele>152.02</ele>
        <time>2017-10-20T11:53:36Z</time>
      </trkpt>
      <trkpt lat="44.36115" lon="4.23376">
        <ele>147.88</ele>
        <time>2017-10-20T11:53:49Z</time>
      </trkpt>
    </trkseg>
  </trk>
</gpx>